sensor_id;sensor_type;location;lat;lon;timestamp;pressure;altitude;pressure_sealevel;temperature;humidity
61035;BME280;46916;40.564;-7.958;2022-11-30T00:00:21;97632.00;;;8.09;83.83
61035;BME280;46916;40.564;-7.958;2022-11-30T00:02:22;97627.72;;;8.08;83.83
61035;BME280;46916;40.564;-7.958;2022-11-30T00:04:23;97632.94;;;8.08;83.75
61035;BME280;46916;40.564;-7.958;2022-11-30T00:06:24;97630.34;;;8.08;83.75
61035;BME280;46916;40.564;-7.958;2022-11-30T00:08:25;97626.03;;;8.07;84.13
61035;BME280;46916;40.564;-7.958;2022-11-30T00:10:28;97623.66;;;8.04;84.08
61035;BME280;46916;40.564;-7.958;2022-11-30T00:12:29;97618.44;;;8.04;84.40
61035;BME280;46916;40.564;-7.958;2022-11-30T00:14:29;97610.72;;;8.03;84.51
61035;BME280;46916;40.564;-7.958;2022-11-30T00:16:30;97607.59;;;7.98;84.17
61035;BME280;46916;40.564;-7.958;2022-11-30T00:18:31;97607.41;;;8.01;84.22
61035;BME280;46916;40.564;-7.958;2022-11-30T00:20:32;97606.56;;;8.00;83.75
61035;BME280;46916;40.564;-7.958;2022-11-30T00:22:33;97602.28;;;7.99;83.79
61035;BME280;46916;40.564;-7.958;2022-11-30T00:24:33;97595.41;;;7.98;83.73
61035;BME280;46916;40.564;-7.958;2022-11-30T00:26:34;97588.41;;;7.99;83.70
61035;BME280;46916;40.564;-7.958;2022-11-30T00:28:35;97582.47;;;7.97;83.34
61035;BME280;46916;40.564;-7.958;2022-11-30T00:30:36;97578.78;;;7.99;83.34
61035;BME280;46916;40.564;-7.958;2022-11-30T00:32:37;97585.69;;;8.00;83.20
61035;BME280;46916;40.564;-7.958;2022-11-30T00:34:38;97582.97;;;8.02;83.12
61035;BME280;46916;40.564;-7.958;2022-11-30T00:36:38;97586.63;;;7.99;82.99
61035;BME280;46916;40.564;-7.958;2022-11-30T00:38:39;97573.81;;;7.96;82.67
61035;BME280;46916;40.564;-7.958;2022-11-30T00:40:40;97574.97;;;7.92;82.14
61035;BME280;46916;40.564;-7.958;2022-11-30T00:42:41;97570.06;;;7.87;81.62
61035;BME280;46916;40.564;-7.958;2022-11-30T00:44:42;97571.19;;;7.72;81.39
61035;BME280;46916;40.564;-7.958;2022-11-30T00:46:42;97571.84;;;7.50;82.68
61035;BME280;46916;40.564;-7.958;2022-11-30T00:48:43;97573.63;;;7.37;83.62
61035;BME280;46916;40.564;-7.958;2022-11-30T00:50:44;97570.84;;;7.27;84.01
61035;BME280;46916;40.564;-7.958;2022-11-30T00:52:44;97571.47;;;7.18;84.12
61035;BME280;46916;40.564;-7.958;2022-11-30T00:54:45;97566.88;;;7.09;85.08
61035;BME280;46916;40.564;-7.958;2022-11-30T00:56:46;97564.59;;;7.04;85.24
61035;BME280;46916;40.564;-7.958;2022-11-30T00:58:46;97568.16;;;7.03;85.61
61035;BME280;46916;40.564;-7.958;2022-11-30T01:00:47;97556.66;;;7.06;85.49
61035;BME280;46916;40.564;-7.958;2022-11-30T01:02:48;97566.25;;;7.18;85.21
61035;BME280;46916;40.564;-7.958;2022-11-30T01:04:52;97568.56;;;7.23;84.71
61035;BME280;46916;40.564;-7.958;2022-11-30T01:06:53;97557.72;;;7.29;84.10
61035;BME280;46916;40.564;-7.958;2022-11-30T01:08:54;97559.16;;;7.33;83.73
61035;BME280;46916;40.564;-7.958;2022-11-30T01:10:54;97560.41;;;7.40;83.33
61035;BME280;46916;40.564;-7.958;2022-11-30T01:12:57;97538.72;;;7.39;83.13
61035;BME280;46916;40.564;-7.958;2022-11-30T01:14:57;97547.75;;;7.47;82.94
61035;BME280;46916;40.564;-7.958;2022-11-30T01:16:58;97546.53;;;7.52;82.35
61035;BME280;46916;40.564;-7.958;2022-11-30T01:18:59;97536.09;;;7.52;82.44
61035;BME280;46916;40.564;-7.958;2022-11-30T01:21:04;97537.75;;;7.53;82.24
61035;BME280;46916;40.564;-7.958;2022-11-30T01:23:05;97551.00;;;7.50;82.29
61035;BME280;46916;40.564;-7.958;2022-11-30T01:25:06;97543.16;;;7.50;82.60
61035;BME280;46916;40.564;-7.958;2022-11-30T01:27:06;97535.25;;;7.52;82.89
61035;BME280;46916;40.564;-7.958;2022-11-30T01:29:07;97532.03;;;7.48;83.07
61035;BME280;46916;40.564;-7.958;2022-11-30T01:31:10;97535.34;;;7.50;82.92
61035;BME280;46916;40.564;-7.958;2022-11-30T01:33:11;97530.75;;;7.54;83.08
61035;BME280;46916;40.564;-7.958;2022-11-30T01:35:11;97535.66;;;7.58;82.82
61035;BME280;46916;40.564;-7.958;2022-11-30T01:37:12;97530.25;;;7.49;83.27
61035;BME280;46916;40.564;-7.958;2022-11-30T01:39:13;97537.66;;;7.42;83.57
61035;BME280;46916;40.564;-7.958;2022-11-30T01:41:17;97527.69;;;7.36;84.28
61035;BME280;46916;40.564;-7.958;2022-11-30T01:43:18;97514.38;;;7.28;84.38
61035;BME280;46916;40.564;-7.958;2022-11-30T01:45:19;97521.22;;;7.29;84.48
61035;BME280;46916;40.564;-7.958;2022-11-30T01:47:24;97515.59;;;7.35;84.38
61035;BME280;46916;40.564;-7.958;2022-11-30T01:49:29;97522.28;;;7.39;84.72
61035;BME280;46916;40.564;-7.958;2022-11-30T01:53:36;97514.75;;;7.47;84.34
61035;BME280;46916;40.564;-7.958;2022-11-30T01:55:39;97503.47;;;7.47;84.01
61035;BME280;46916;40.564;-7.958;2022-11-30T01:57:54;97496.81;;;7.42;83.47
61035;BME280;46916;40.564;-7.958;2022-11-30T01:59:59;97503.63;;;7.32;84.02
61035;BME280;46916;40.564;-7.958;2022-11-30T02:02:00;97504.88;;;7.27;84.15
61035;BME280;46916;40.564;-7.958;2022-11-30T02:04:07;97497.50;;;7.20;84.21
61035;BME280;46916;40.564;-7.958;2022-11-30T02:06:09;97494.88;;;7.20;84.71
61035;BME280;46916;40.564;-7.958;2022-11-30T02:08:10;97491.88;;;7.27;83.93
61035;BME280;46916;40.564;-7.958;2022-11-30T02:10:16;97496.03;;;7.16;83.22
61035;BME280;46916;40.564;-7.958;2022-11-30T02:12:28;97486.06;;;7.10;82.32
61035;BME280;46916;40.564;-7.958;2022-11-30T02:14:48;97488.97;;;6.93;82.51
61035;BME280;46916;40.564;-7.958;2022-11-30T02:23:23;97483.47;;;6.59;82.98
61035;BME280;46916;40.564;-7.958;2022-11-30T02:30:18;97483.13;;;6.26;84.25
61035;BME280;46916;40.564;-7.958;2022-11-30T02:32:25;97479.56;;;6.14;84.09
61035;BME280;46916;40.564;-7.958;2022-11-30T02:34:29;97483.19;;;6.11;84.77
61035;BME280;46916;40.564;-7.958;2022-11-30T02:36:31;97484.03;;;6.12;84.79
61035;BME280;46916;40.564;-7.958;2022-11-30T02:38:32;97479.88;;;6.09;84.78
61035;BME280;46916;40.564;-7.958;2022-11-30T02:40:33;97483.63;;;6.05;85.23
61035;BME280;46916;40.564;-7.958;2022-11-30T02:42:34;97472.16;;;6.08;85.67
61035;BME280;46916;40.564;-7.958;2022-11-30T02:44:35;97478.56;;;6.16;84.88
61035;BME280;46916;40.564;-7.958;2022-11-30T02:48:50;97470.44;;;6.21;84.55
61035;BME280;46916;40.564;-7.958;2022-11-30T02:50:56;97472.28;;;6.19;84.62
61035;BME280;46916;40.564;-7.958;2022-11-30T02:52:58;97470.84;;;6.15;85.56
61035;BME280;46916;40.564;-7.958;2022-11-30T02:55:04;97473.13;;;6.19;85.46
61035;BME280;46916;40.564;-7.958;2022-11-30T02:57:06;97488.03;;;6.30;85.17
61035;BME280;46916;40.564;-7.958;2022-11-30T02:59:07;97487.53;;;6.38;85.13
61035;BME280;46916;40.564;-7.958;2022-11-30T03:01:07;97495.47;;;6.49;84.76
61035;BME280;46916;40.564;-7.958;2022-11-30T03:03:08;97491.41;;;6.58;84.46
61035;BME280;46916;40.564;-7.958;2022-11-30T03:05:09;97488.28;;;6.65;84.16
61035;BME280;46916;40.564;-7.958;2022-11-30T03:07:10;97481.19;;;6.67;83.49
61035;BME280;46916;40.564;-7.958;2022-11-30T03:09:10;97478.59;;;6.67;83.27
61035;BME280;46916;40.564;-7.958;2022-11-30T03:11:11;97479.34;;;6.69;83.34
61035;BME280;46916;40.564;-7.958;2022-11-30T03:13:12;97478.38;;;6.70;83.26
61035;BME280;46916;40.564;-7.958;2022-11-30T03:15:12;97485.88;;;6.75;82.77
61035;BME280;46916;40.564;-7.958;2022-11-30T03:17:13;97486.50;;;6.79;82.53
61035;BME280;46916;40.564;-7.958;2022-11-30T03:19:13;97486.31;;;6.82;82.18
61035;BME280;46916;40.564;-7.958;2022-11-30T03:21:14;97483.47;;;6.85;82.34
61035;BME280;46916;40.564;-7.958;2022-11-30T03:23:15;97474.00;;;6.84;81.84
61035;BME280;46916;40.564;-7.958;2022-11-30T03:25:16;97483.16;;;6.89;82.26
61035;BME280;46916;40.564;-7.958;2022-11-30T03:27:17;97475.03;;;6.94;81.93
61035;BME280;46916;40.564;-7.958;2022-11-30T03:29:18;97478.97;;;7.00;82.23
61035;BME280;46916;40.564;-7.958;2022-11-30T03:31:18;97469.19;;;7.03;82.34
61035;BME280;46916;40.564;-7.958;2022-11-30T03:33:19;97474.19;;;7.06;82.05
61035;BME280;46916;40.564;-7.958;2022-11-30T03:35:20;97458.44;;;7.08;81.61
61035;BME280;46916;40.564;-7.958;2022-11-30T03:37:20;97464.16;;;7.13;81.68
61035;BME280;46916;40.564;-7.958;2022-11-30T03:39:21;97453.66;;;7.14;81.40
61035;BME280;46916;40.564;-7.958;2022-11-30T03:41:23;97455.41;;;7.14;81.50
61035;BME280;46916;40.564;-7.958;2022-11-30T03:43:24;97445.84;;;7.14;80.85
61035;BME280;46916;40.564;-7.958;2022-11-30T03:45:24;97448.66;;;7.11;80.65
61035;BME280;46916;40.564;-7.958;2022-11-30T03:47:25;97440.53;;;7.03;80.75
61035;BME280;46916;40.564;-7.958;2022-11-30T03:49:26;97441.50;;;7.02;80.35
61035;BME280;46916;40.564;-7.958;2022-11-30T03:51:26;97440.25;;;6.95;79.69
61035;BME280;46916;40.564;-7.958;2022-11-30T03:53:27;97435.78;;;6.84;79.33
61035;BME280;46916;40.564;-7.958;2022-11-30T03:55:28;97425.19;;;6.62;80.03
61035;BME280;46916;40.564;-7.958;2022-11-30T03:57:28;97437.16;;;6.52;80.51
61035;BME280;46916;40.564;-7.958;2022-11-30T03:59:29;97432.25;;;6.34;81.10
61035;BME280;46916;40.564;-7.958;2022-11-30T04:01:30;97430.59;;;6.20;81.88
61035;BME280;46916;40.564;-7.958;2022-11-30T04:03:31;97431.50;;;6.07;82.62
61035;BME280;46916;40.564;-7.958;2022-11-30T04:05:32;97431.09;;;6.00;83.93
61035;BME280;46916;40.564;-7.958;2022-11-30T04:07:33;97424.13;;;6.01;84.02
61035;BME280;46916;40.564;-7.958;2022-11-30T04:09:34;97423.38;;;5.99;83.25
61035;BME280;46916;40.564;-7.958;2022-11-30T04:11:34;97421.25;;;5.91;83.45
61035;BME280;46916;40.564;-7.958;2022-11-30T04:13:37;97424.63;;;5.93;84.22
61035;BME280;46916;40.564;-7.958;2022-11-30T04:15:38;97418.59;;;5.92;84.17
61035;BME280;46916;40.564;-7.958;2022-11-30T04:17:38;97403.84;;;5.93;85.04
61035;BME280;46916;40.564;-7.958;2022-11-30T04:19:39;97400.91;;;5.98;85.02
61035;BME280;46916;40.564;-7.958;2022-11-30T04:21:40;97394.38;;;5.92;84.38
61035;BME280;46916;40.564;-7.958;2022-11-30T04:23:40;97392.75;;;5.89;84.60
61035;BME280;46916;40.564;-7.958;2022-11-30T04:25:41;97390.56;;;5.83;85.25
61035;BME280;46916;40.564;-7.958;2022-11-30T04:27:44;97392.75;;;5.77;85.11
61035;BME280;46916;40.564;-7.958;2022-11-30T04:29:46;97393.69;;;5.76;85.42
61035;BME280;46916;40.564;-7.958;2022-11-30T04:31:46;97387.63;;;5.75;85.49
61035;BME280;46916;40.564;-7.958;2022-11-30T04:33:47;97387.56;;;5.77;85.44
61035;BME280;46916;40.564;-7.958;2022-11-30T04:35:53;97394.00;;;5.84;85.29
61035;BME280;46916;40.564;-7.958;2022-11-30T04:37:54;97389.09;;;5.79;85.58
61035;BME280;46916;40.564;-7.958;2022-11-30T04:39:55;97390.66;;;5.82;85.45
61035;BME280;46916;40.564;-7.958;2022-11-30T04:41:56;97392.56;;;5.80;84.89
61035;BME280;46916;40.564;-7.958;2022-11-30T04:43:56;97387.75;;;5.74;85.28
61035;BME280;46916;40.564;-7.958;2022-11-30T04:45:57;97385.16;;;5.74;85.46
61035;BME280;46916;40.564;-7.958;2022-11-30T04:47:57;97390.88;;;5.79;85.15
61035;BME280;46916;40.564;-7.958;2022-11-30T04:49:58;97382.34;;;5.77;85.30
61035;BME280;46916;40.564;-7.958;2022-11-30T04:51:59;97375.19;;;5.80;85.15
61035;BME280;46916;40.564;-7.958;2022-11-30T04:54:00;97375.06;;;5.82;85.62
61035;BME280;46916;40.564;-7.958;2022-11-30T04:56:08;97378.41;;;5.84;85.34
61035;BME280;46916;40.564;-7.958;2022-11-30T04:58:08;97379.34;;;5.83;85.16
61035;BME280;46916;40.564;-7.958;2022-11-30T05:00:10;97386.09;;;5.85;85.49
61035;BME280;46916;40.564;-7.958;2022-11-30T05:02:10;97383.19;;;5.90;85.71
61035;BME280;46916;40.564;-7.958;2022-11-30T05:04:11;97375.88;;;5.97;84.84
61035;BME280;46916;40.564;-7.958;2022-11-30T05:06:12;97379.81;;;6.02;84.48
61035;BME280;46916;40.564;-7.958;2022-11-30T05:08:13;97378.47;;;6.09;84.30
61035;BME280;46916;40.564;-7.958;2022-11-30T05:10:13;97379.72;;;6.16;84.39
61035;BME280;46916;40.564;-7.958;2022-11-30T05:12:14;97375.25;;;6.18;84.18
61035;BME280;46916;40.564;-7.958;2022-11-30T05:14:14;97373.91;;;6.26;83.63
61035;BME280;46916;40.564;-7.958;2022-11-30T05:16:15;97365.66;;;6.32;84.12
61035;BME280;46916;40.564;-7.958;2022-11-30T05:18:16;97368.50;;;6.41;83.54
61035;BME280;46916;40.564;-7.958;2022-11-30T05:20:17;97373.25;;;6.48;83.16
61035;BME280;46916;40.564;-7.958;2022-11-30T05:22:17;97373.16;;;6.49;82.94
61035;BME280;46916;40.564;-7.958;2022-11-30T05:24:18;97373.75;;;6.53;82.86
61035;BME280;46916;40.564;-7.958;2022-11-30T05:26:18;97375.22;;;6.57;82.94
61035;BME280;46916;40.564;-7.958;2022-11-30T05:28:19;97370.53;;;6.62;82.85
61035;BME280;46916;40.564;-7.958;2022-11-30T05:30:20;97367.63;;;6.66;82.26
61035;BME280;46916;40.564;-7.958;2022-11-30T05:32:21;97359.69;;;6.68;82.08
61035;BME280;46916;40.564;-7.958;2022-11-30T05:34:21;97359.47;;;6.71;81.84
61035;BME280;46916;40.564;-7.958;2022-11-30T05:36:22;97368.84;;;6.74;81.89
61035;BME280;46916;40.564;-7.958;2022-11-30T05:38:23;97360.09;;;6.75;81.68
61035;BME280;46916;40.564;-7.958;2022-11-30T05:40:24;97359.03;;;6.77;82.26
61035;BME280;46916;40.564;-7.958;2022-11-30T05:42:27;97353.25;;;6.74;82.17
61035;BME280;46916;40.564;-7.958;2022-11-30T05:44:27;97353.00;;;6.77;82.20
61035;BME280;46916;40.564;-7.958;2022-11-30T05:46:28;97350.63;;;6.74;81.66
61035;BME280;46916;40.564;-7.958;2022-11-30T05:48:29;97342.72;;;6.75;81.98
61035;BME280;46916;40.564;-7.958;2022-11-30T05:50:30;97345.31;;;6.75;81.96
61035;BME280;46916;40.564;-7.958;2022-11-30T05:52:31;97348.25;;;6.70;81.63
61035;BME280;46916;40.564;-7.958;2022-11-30T05:54:32;97336.59;;;6.63;81.86
61035;BME280;46916;40.564;-7.958;2022-11-30T05:56:33;97335.69;;;6.52;82.56
61035;BME280;46916;40.564;-7.958;2022-11-30T05:58:34;97331.00;;;6.44;82.41
61035;BME280;46916;40.564;-7.958;2022-11-30T06:00:35;97336.13;;;6.33;83.66
61035;BME280;46916;40.564;-7.958;2022-11-30T06:02:36;97328.53;;;6.30;83.28
61035;BME280;46916;40.564;-7.958;2022-11-30T06:04:37;97337.06;;;6.32;83.40
61035;BME280;46916;40.564;-7.958;2022-11-30T06:06:37;97331.75;;;6.33;84.18
61035;BME280;46916;40.564;-7.958;2022-11-30T06:08:38;97336.03;;;6.34;83.38
61035;BME280;46916;40.564;-7.958;2022-11-30T06:10:39;97334.78;;;6.27;83.63
61035;BME280;46916;40.564;-7.958;2022-11-30T06:12:39;97333.44;;;6.22;83.95
61035;BME280;46916;40.564;-7.958;2022-11-30T06:14:40;97332.94;;;6.16;83.96
61035;BME280;46916;40.564;-7.958;2022-11-30T06:16:41;97329.25;;;6.19;84.66
61035;BME280;46916;40.564;-7.958;2022-11-30T06:18:42;97323.97;;;6.20;84.17
61035;BME280;46916;40.564;-7.958;2022-11-30T06:20:42;97324.56;;;6.24;84.29
61035;BME280;46916;40.564;-7.958;2022-11-30T06:22:44;97329.25;;;6.32;83.87
61035;BME280;46916;40.564;-7.958;2022-11-30T06:24:46;97322.06;;;6.35;84.37
61035;BME280;46916;40.564;-7.958;2022-11-30T06:26:46;97329.03;;;6.35;83.68
61035;BME280;46916;40.564;-7.958;2022-11-30T06:28:47;97316.03;;;6.35;84.59
61035;BME280;46916;40.564;-7.958;2022-11-30T06:30:47;97313.03;;;6.41;84.48
61035;BME280;46916;40.564;-7.958;2022-11-30T06:32:49;97316.13;;;6.46;84.07
61035;BME280;46916;40.564;-7.958;2022-11-30T06:34:50;97321.22;;;6.48;84.30
61035;BME280;46916;40.564;-7.958;2022-11-30T06:36:51;97329.53;;;6.53;83.75
61035;BME280;46916;40.564;-7.958;2022-11-30T06:38:52;97330.97;;;6.57;83.87
61035;BME280;46916;40.564;-7.958;2022-11-30T06:40:52;97328.28;;;6.58;84.03
61035;BME280;46916;40.564;-7.958;2022-11-30T06:42:53;97315.06;;;6.61;84.01
61035;BME280;46916;40.564;-7.958;2022-11-30T06:44:55;97311.31;;;6.65;84.38
61035;BME280;46916;40.564;-7.958;2022-11-30T06:46:55;97318.50;;;6.62;84.50
61035;BME280;46916;40.564;-7.958;2022-11-30T06:48:56;97319.53;;;6.59;84.21
61035;BME280;46916;40.564;-7.958;2022-11-30T06:50:57;97310.41;;;6.54;84.83
61035;BME280;46916;40.564;-7.958;2022-11-30T06:52:58;97323.00;;;6.47;84.89
61035;BME280;46916;40.564;-7.958;2022-11-30T06:54:59;97329.75;;;6.50;85.13
61035;BME280;46916;40.564;-7.958;2022-11-30T06:56:59;97331.09;;;6.55;84.78
61035;BME280;46916;40.564;-7.958;2022-11-30T06:59:00;97316.94;;;6.59;85.23
61035;BME280;46916;40.564;-7.958;2022-11-30T07:01:04;97317.06;;;6.58;85.07
61035;BME280;46916;40.564;-7.958;2022-11-30T07:03:05;97325.06;;;6.55;85.69
61035;BME280;46916;40.564;-7.958;2022-11-30T07:05:06;97332.88;;;6.55;85.77
61035;BME280;46916;40.564;-7.958;2022-11-30T07:07:07;97331.84;;;6.57;85.90
61035;BME280;46916;40.564;-7.958;2022-11-30T07:09:07;97329.94;;;6.59;86.28
61035;BME280;46916;40.564;-7.958;2022-11-30T07:11:10;97327.22;;;6.61;86.01
61035;BME280;46916;40.564;-7.958;2022-11-30T07:13:13;97330.88;;;6.58;85.67
61035;BME280;46916;40.564;-7.958;2022-11-30T07:15:15;97325.78;;;6.57;85.82
61035;BME280;46916;40.564;-7.958;2022-11-30T07:17:15;97321.63;;;6.54;86.04
61035;BME280;46916;40.564;-7.958;2022-11-30T07:19:16;97319.03;;;6.54;85.75
61035;BME280;46916;40.564;-7.958;2022-11-30T07:21:17;97313.09;;;6.52;85.96
61035;BME280;46916;40.564;-7.958;2022-11-30T07:23:17;97315.94;;;6.49;86.88
61035;BME280;46916;40.564;-7.958;2022-11-30T07:25:36;97314.25;;;6.48;87.40
61035;BME280;46916;40.564;-7.958;2022-11-30T07:27:56;97311.44;;;6.51;87.71
61035;BME280;46916;40.564;-7.958;2022-11-30T07:29:56;97319.97;;;6.53;88.04
61035;BME280;46916;40.564;-7.958;2022-11-30T07:31:57;97315.59;;;6.54;87.90
61035;BME280;46916;40.564;-7.958;2022-11-30T07:34:01;97313.53;;;6.46;87.90
61035;BME280;46916;40.564;-7.958;2022-11-30T07:36:03;97313.53;;;6.46;87.58
61035;BME280;46916;40.564;-7.958;2022-11-30T07:38:03;97310.44;;;6.41;86.25
61035;BME280;46916;40.564;-7.958;2022-11-30T07:40:04;97318.84;;;6.32;86.52
61035;BME280;46916;40.564;-7.958;2022-11-30T07:42:05;97326.34;;;6.24;87.26
61035;BME280;46916;40.564;-7.958;2022-11-30T07:44:07;97322.28;;;6.19;87.40
61035;BME280;46916;40.564;-7.958;2022-11-30T07:46:12;97325.84;;;6.18;87.34
61035;BME280;46916;40.564;-7.958;2022-11-30T07:48:13;97326.47;;;6.22;87.13
61035;BME280;46916;40.564;-7.958;2022-11-30T07:50:14;97325.19;;;6.28;87.21
61035;BME280;46916;40.564;-7.958;2022-11-30T07:52:15;97319.78;;;6.31;87.55
61035;BME280;46916;40.564;-7.958;2022-11-30T07:54:16;97329.78;;;6.37;87.37
61035;BME280;46916;40.564;-7.958;2022-11-30T07:56:18;97339.34;;;6.36;88.03
61035;BME280;46916;40.564;-7.958;2022-11-30T07:58:19;97349.53;;;6.39;88.01
61035;BME280;46916;40.564;-7.958;2022-11-30T08:00:20;97358.72;;;6.45;87.78
61035;BME280;46916;40.564;-7.958;2022-11-30T08:02:20;97364.91;;;6.55;87.87
61035;BME280;46916;40.564;-7.958;2022-11-30T08:04:21;97360.22;;;6.60;88.00
61035;BME280;46916;40.564;-7.958;2022-11-30T08:06:24;97355.63;;;6.64;88.57
61035;BME280;46916;40.564;-7.958;2022-11-30T08:08:28;97349.78;;;6.73;88.54
61035;BME280;46916;40.564;-7.958;2022-11-30T08:10:29;97360.47;;;6.81;88.11
61035;BME280;46916;40.564;-7.958;2022-11-30T08:12:29;97358.41;;;6.86;87.80
61035;BME280;46916;40.564;-7.958;2022-11-30T08:14:30;97359.75;;;6.92;87.77
61035;BME280;46916;40.564;-7.958;2022-11-30T08:16:34;97357.13;;;6.92;87.54
61035;BME280;46916;40.564;-7.958;2022-11-30T08:18:35;97358.59;;;6.96;87.67
61035;BME280;46916;40.564;-7.958;2022-11-30T08:20:36;97348.91;;;6.98;87.50
61035;BME280;46916;40.564;-7.958;2022-11-30T08:22:38;97340.34;;;6.96;88.03
61035;BME280;46916;40.564;-7.958;2022-11-30T08:24:39;97320.25;;;6.98;88.92
61035;BME280;46916;40.564;-7.958;2022-11-30T08:26:39;97327.84;;;7.25;88.69
61035;BME280;46916;40.564;-7.958;2022-11-30T08:28:41;97319.84;;;7.39;88.37
61035;BME280;46916;40.564;-7.958;2022-11-30T08:30:42;97325.69;;;7.54;87.58
61035;BME280;46916;40.564;-7.958;2022-11-30T08:32:43;97332.13;;;7.61;87.22
61035;BME280;46916;40.564;-7.958;2022-11-30T08:34:43;97334.28;;;7.67;87.17
61035;BME280;46916;40.564;-7.958;2022-11-30T08:36:44;97338.22;;;7.73;86.67
61035;BME280;46916;40.564;-7.958;2022-11-30T08:38:45;97342.13;;;7.79;86.72
61035;BME280;46916;40.564;-7.958;2022-11-30T08:40:46;97349.38;;;7.86;86.36
61035;BME280;46916;40.564;-7.958;2022-11-30T08:42:47;97352.16;;;7.96;86.73
61035;BME280;46916;40.564;-7.958;2022-11-30T08:44:48;97358.19;;;8.08;86.01
61035;BME280;46916;40.564;-7.958;2022-11-30T08:46:48;97365.56;;;8.14;85.90
61035;BME280;46916;40.564;-7.958;2022-11-30T08:48:49;97366.88;;;8.19;85.67
61035;BME280;46916;40.564;-7.958;2022-11-30T08:50:50;97354.78;;;8.18;85.88
61035;BME280;46916;40.564;-7.958;2022-11-30T08:52:53;97346.81;;;8.20;85.73
61035;BME280;46916;40.564;-7.958;2022-11-30T08:54:54;97352.63;;;8.24;85.94
61035;BME280;46916;40.564;-7.958;2022-11-30T08:56:56;97352.53;;;8.25;85.92
61035;BME280;46916;40.564;-7.958;2022-11-30T08:58:58;97344.34;;;8.18;86.17
61035;BME280;46916;40.564;-7.958;2022-11-30T09:01:09;97345.88;;;8.10;86.33
61035;BME280;46916;40.564;-7.958;2022-11-30T09:03:10;97355.09;;;8.03;86.28
61035;BME280;46916;40.564;-7.958;2022-11-30T09:05:11;97349.28;;;7.88;86.06
61035;BME280;46916;40.564;-7.958;2022-11-30T09:07:12;97346.97;;;7.72;86.75
61035;BME280;46916;40.564;-7.958;2022-11-30T09:09:13;97345.28;;;7.60;87.29
61035;BME280;46916;40.564;-7.958;2022-11-30T09:13:14;97355.25;;;7.42;88.12
61035;BME280;46916;40.564;-7.958;2022-11-30T09:15:15;97350.28;;;7.39;88.95
61035;BME280;46916;40.564;-7.958;2022-11-30T09:17:16;97353.66;;;7.28;89.16
61035;BME280;46916;40.564;-7.958;2022-11-30T09:19:16;97353.53;;;7.30;89.75
61035;BME280;46916;40.564;-7.958;2022-11-30T09:21:20;97358.66;;;7.31;90.41
61035;BME280;46916;40.564;-7.958;2022-11-30T09:23:21;97360.75;;;7.26;90.00
61035;BME280;46916;40.564;-7.958;2022-11-30T09:25:22;97362.25;;;7.17;91.10
61035;BME280;46916;40.564;-7.958;2022-11-30T09:27:22;97359.56;;;7.19;91.47
61035;BME280;46916;40.564;-7.958;2022-11-30T09:29:24;97360.47;;;7.18;91.20
61035;BME280;46916;40.564;-7.958;2022-11-30T09:31:26;97348.13;;;7.09;92.19
61035;BME280;46916;40.564;-7.958;2022-11-30T09:33:26;97358.75;;;7.06;92.10
61035;BME280;46916;40.564;-7.958;2022-11-30T09:35:27;97353.66;;;7.04;92.93
61035;BME280;46916;40.564;-7.958;2022-11-30T09:37:28;97352.34;;;6.99;93.68
61035;BME280;46916;40.564;-7.958;2022-11-30T09:39:28;97360.22;;;6.97;94.56
61035;BME280;46916;40.564;-7.958;2022-11-30T09:43:53;97347.22;;;6.97;95.07
61035;BME280;46916;40.564;-7.958;2022-11-30T09:46:02;97341.97;;;7.10;95.15
61035;BME280;46916;40.564;-7.958;2022-11-30T09:48:16;97351.53;;;7.09;95.15
61035;BME280;46916;40.564;-7.958;2022-11-30T09:50:24;97348.72;;;7.12;95.07
61035;BME280;46916;40.564;-7.958;2022-11-30T09:54:43;97338.72;;;7.19;95.46
61035;BME280;46916;40.564;-7.958;2022-11-30T09:56:44;97338.47;;;7.22;95.75
61035;BME280;46916;40.564;-7.958;2022-11-30T09:58:49;97345.97;;;7.27;95.69
61035;BME280;46916;40.564;-7.958;2022-11-30T10:00:52;97339.59;;;7.31;96.32
61035;BME280;46916;40.564;-7.958;2022-11-30T10:02:55;97335.09;;;7.33;96.15
61035;BME280;46916;40.564;-7.958;2022-11-30T10:04:57;97339.34;;;7.34;96.79
61035;BME280;46916;40.564;-7.958;2022-11-30T10:09:46;97324.94;;;7.41;97.30
61035;BME280;46916;40.564;-7.958;2022-11-30T10:25:24;97328.63;;;7.85;97.91
61035;BME280;46916;40.564;-7.958;2022-11-30T10:29:47;97328.63;;;7.85;97.87
61035;BME280;46916;40.564;-7.958;2022-11-30T10:31:52;97323.91;;;7.90;97.37
61035;BME280;46916;40.564;-7.958;2022-11-30T10:33:56;97320.34;;;7.91;97.46
61035;BME280;46916;40.564;-7.958;2022-11-30T10:36:03;97315.38;;;7.88;97.54
61035;BME280;46916;40.564;-7.958;2022-11-30T10:38:20;97306.00;;;7.85;97.94
61035;BME280;46916;40.564;-7.958;2022-11-30T10:41:00;97317.84;;;7.89;98.08
61035;BME280;46916;40.564;-7.958;2022-11-30T10:43:15;97320.72;;;7.98;97.61
61035;BME280;46916;40.564;-7.958;2022-11-30T10:45:20;97320.59;;;7.99;97.43
61035;BME280;46916;40.564;-7.958;2022-11-30T10:47:24;97316.47;;;7.97;97.70
61035;BME280;46916;40.564;-7.958;2022-11-30T10:49:27;97309.34;;;7.99;97.64
61035;BME280;46916;40.564;-7.958;2022-11-30T10:51:30;97317.06;;;8.00;97.79
61035;BME280;46916;40.564;-7.958;2022-11-30T10:53:33;97312.53;;;8.02;97.83
61035;BME280;46916;40.564;-7.958;2022-11-30T10:55:37;97310.75;;;8.03;97.94
61035;BME280;46916;40.564;-7.958;2022-11-30T10:57:39;97303.16;;;8.00;97.83
61035;BME280;46916;40.564;-7.958;2022-11-30T10:59:45;97300.69;;;7.98;98.39
61035;BME280;46916;40.564;-7.958;2022-11-30T11:01:47;97291.06;;;7.99;98.51
61035;BME280;46916;40.564;-7.958;2022-11-30T11:03:48;97289.91;;;8.03;99.18
61035;BME280;46916;40.564;-7.958;2022-11-30T11:06:14;97282.91;;;8.03;99.12
61035;BME280;46916;40.564;-7.958;2022-11-30T11:08:26;97279.69;;;8.00;99.59
61035;BME280;46916;40.564;-7.958;2022-11-30T11:12:45;97280.78;;;8.08;100.00
61035;BME280;46916;40.564;-7.958;2022-11-30T11:14:47;97269.63;;;8.06;100.00
61035;BME280;46916;40.564;-7.958;2022-11-30T11:16:56;97275.09;;;8.14;100.00
61035;BME280;46916;40.564;-7.958;2022-11-30T11:18:57;97263.22;;;8.22;100.00
61035;BME280;46916;40.564;-7.958;2022-11-30T11:21:04;97265.00;;;8.21;100.00
61035;BME280;46916;40.564;-7.958;2022-11-30T11:23:22;97264.75;;;8.24;100.00
61035;BME280;46916;40.564;-7.958;2022-11-30T11:27:31;97254.09;;;8.27;100.00
61035;BME280;46916;40.564;-7.958;2022-11-30T11:29:33;97240.94;;;8.29;100.00
61035;BME280;46916;40.564;-7.958;2022-11-30T11:31:36;97239.50;;;8.36;100.00